createdAt,value
2022-11-02T00:01:51.987Z,101301.13
2022-11-02T00:04:19.480Z,101299.31
2022-11-02T00:06:46.980Z,101304.53
2022-11-02T00:09:14.441Z,101307.19
2022-11-02T00:11:42.164Z,101307.19
2022-11-02T00:14:09.604Z,101308.28
2022-11-02T00:16:37.870Z,101312.78
2022-11-02T00:19:06.642Z,101306.56
2022-11-02T00:21:34.088Z,101310.09
2022-11-02T00:24:01.583Z,101297.75
2022-11-02T00:26:29.098Z,101303.06
2022-11-02T00:28:56.538Z,101309.25
2022-11-02T00:31:24.510Z,101304.06
2022-11-02T00:33:52.285Z,101303.06
2022-11-02T00:36:21.084Z,101303.06
2022-11-02T00:38:48.884Z,101297.22
2022-11-02T00:41:16.341Z,101310.81
2022-11-02T00:43:43.829Z,101311.78
2022-11-02T00:46:11.623Z,101318.69
2022-11-02T00:48:39.097Z,101308.16
2022-11-02T00:51:06.953Z,101302.25
2022-11-02T00:53:36.700Z,101300.41
2022-11-02T00:56:04.219Z,101302.38
2022-11-02T00:58:32.079Z,101304.19
2022-11-02T01:01:01.998Z,101303.31
2022-11-02T01:03:30.305Z,101307.81
2022-11-02T01:05:57.775Z,101309.66
2022-11-02T01:08:25.243Z,101309.66
2022-11-02T01:10:53.995Z,101305.28
2022-11-02T01:13:21.473Z,101308.94
2022-11-02T01:15:48.909Z,101294.88
2022-11-02T01:18:16.376Z,101291.25
2022-11-02T01:20:43.853Z,101290.28
2022-11-02T01:23:11.333Z,101292.06
2022-11-02T01:25:38.791Z,101304.44
2022-11-02T01:28:07.915Z,101304.69
2022-11-02T01:30:35.473Z,101314.28
2022-11-02T01:33:02.925Z,101308.19
2022-11-02T01:35:30.444Z,101309.19
2022-11-02T01:37:57.889Z,101301.19
2022-11-02T01:40:25.344Z,101310.88
2022-11-02T01:42:52.846Z,101303.88
2022-11-02T01:45:21.773Z,101303.88
2022-11-02T01:47:49.224Z,101299.38
2022-11-02T01:50:20.911Z,101300.47
2022-11-02T01:52:48.367Z,101302.16
2022-11-02T01:55:19.274Z,101288.94
2022-11-02T01:57:47.995Z,101289.81
2022-11-02T02:00:16.646Z,101281.09
2022-11-02T02:02:53.811Z,101279.41
2022-11-02T02:05:21.897Z,101274.06
2022-11-02T02:07:51.074Z,101275.75
2022-11-02T02:10:18.831Z,101273.09
2022-11-02T02:12:46.281Z,101278.41
2022-11-02T02:15:17.976Z,101274.06
2022-11-02T02:17:48.927Z,101277.69
2022-11-02T02:20:27.339Z,101279.41
2022-11-02T02:23:26.558Z,101274.91
2022-11-02T02:26:21.664Z,101274.19
2022-11-02T02:28:52.486Z,101266.06
2022-11-02T02:31:21.549Z,101266.31
2022-11-02T02:33:50.317Z,101270.69
2022-11-02T02:36:21.363Z,101271.53
2022-11-02T02:38:50.122Z,101267.16
2022-11-02T02:41:20.279Z,101263.66
2022-11-02T02:43:50.428Z,101270.69
2022-11-02T02:46:20.605Z,101262.81
2022-11-02T02:48:48.319Z,101262.88
2022-11-02T02:51:17.928Z,101263.63
2022-11-02T02:53:46.367Z,101262.88
2022-11-02T02:56:17.660Z,101263.63
2022-11-02T02:58:46.595Z,101265.53
2022-11-02T03:01:15.593Z,101266.28
2022-11-02T03:03:43.887Z,101255.75
2022-11-02T03:06:16.236Z,101261.06
2022-11-02T03:08:49.869Z,101268.19
2022-11-02T03:11:17.844Z,101265.66
2022-11-02T03:13:55.611Z,101264.00
2022-11-02T03:16:32.271Z,101256.84
2022-11-02T03:19:03.300Z,101254.16
2022-11-02T03:21:39.159Z,101253.06
2022-11-02T03:24:09.397Z,101253.19
2022-11-02T03:26:39.220Z,101257.81
2022-11-02T03:29:09.785Z,101261.19
2022-11-02T03:31:41.524Z,101259.25
2022-11-02T03:34:15.462Z,101261.19
2022-11-02T03:36:46.187Z,101264.00
2022-11-02T03:39:14.712Z,101272.81
2022-11-02T03:41:43.458Z,101272.00
2022-11-02T03:44:12.447Z,101269.31
2022-11-02T03:46:41.765Z,101263.28
2022-11-02T03:49:11.212Z,101261.47
2022-11-02T03:51:39.817Z,101265.94
2022-11-02T03:54:09.324Z,101266.78
2022-11-02T03:56:38.469Z,101264.25
2022-11-02T03:59:05.974Z,101265.09
2022-11-02T04:01:33.512Z,101260.75
2022-11-02T04:04:04.629Z,101260.75
2022-11-02T04:06:33.145Z,101258.78
2022-11-02T04:09:01.698Z,101258.06
2022-11-02T04:11:48.582Z,101258.06
2022-11-02T04:14:33.745Z,101262.69
2022-11-02T04:17:20.195Z,101256.38
2022-11-02T04:19:52.423Z,101263.41
2022-11-02T04:22:39.291Z,101256.38
2022-11-02T04:25:19.426Z,101260.16
2022-11-02T04:28:12.935Z,101262.69
2022-11-02T04:30:50.161Z,101257.22
2022-11-02T04:33:39.859Z,101253.00
2022-11-02T04:36:14.163Z,101261.72
2022-11-02T04:38:41.392Z,101259.03
2022-11-02T04:41:43.003Z,101255.78
2022-11-02T04:44:30.495Z,101255.78
2022-11-02T04:47:07.373Z,101251.28
2022-11-02T04:49:36.097Z,101256.63
2022-11-02T04:52:07.369Z,101256.63
2022-11-02T04:54:36.522Z,101258.34
2022-11-02T04:57:06.367Z,101261.84
2022-11-02T04:59:34.486Z,101260.28
2022-11-02T05:02:02.168Z,101258.34
2022-11-02T05:04:29.989Z,101256.63
2022-11-02T05:07:01.487Z,101260.28
2022-11-02T05:09:32.082Z,101262.97
2022-11-02T05:12:01.696Z,101264.63
2022-11-02T05:14:29.211Z,101258.59
2022-11-02T05:16:56.714Z,101261.13
2022-11-02T05:19:24.782Z,101260.41
2022-11-02T05:21:53.148Z,101263.91
2022-11-02T05:24:20.689Z,101263.09
2022-11-02T05:26:53.772Z,101264.03
2022-11-02T05:29:23.728Z,101271.06
2022-11-02T05:31:52.123Z,101277.13
2022-11-02T05:34:19.893Z,101268.28
2022-11-02T05:36:48.793Z,101274.69
2022-11-02T05:39:16.574Z,101276.41
2022-11-02T05:41:44.039Z,101266.72
2022-11-02T05:44:12.968Z,101267.56
2022-11-02T05:46:40.840Z,101277.25
2022-11-02T05:49:08.294Z,101267.56
2022-11-02T05:51:35.745Z,101265.88
2022-11-02T05:54:03.239Z,101273.16
2022-11-02T05:56:30.703Z,101271.44
2022-11-02T05:58:58.157Z,101270.63
2022-11-02T06:01:26.954Z,101275.13
2022-11-02T06:03:54.648Z,101267.13
2022-11-02T06:06:22.206Z,101267.81
2022-11-02T06:08:49.830Z,101271.19
2022-11-02T06:11:17.988Z,101266.72
2022-11-02T06:13:45.521Z,101271.19
2022-11-02T06:16:20.014Z,101271.19
2022-11-02T06:18:51.391Z,101269.00
2022-11-02T06:21:18.933Z,101270.69
2022-11-02T06:23:48.199Z,101273.81
2022-11-02T06:26:15.753Z,101276.63
2022-11-02T06:28:43.233Z,101279.16
2022-11-02T06:31:11.483Z,101281.53
2022-11-02T06:33:38.957Z,101282.53
2022-11-02T06:36:08.482Z,101282.53
2022-11-02T06:38:35.956Z,101286.16
2022-11-02T06:41:05.694Z,101284.19
2022-11-02T06:43:34.241Z,101281.41
2022-11-02T06:46:01.734Z,101272.69
2022-11-02T06:48:34.587Z,101273.53
2022-11-02T06:51:02.343Z,101286.63
2022-11-02T06:53:31.104Z,101292.66
2022-11-02T06:55:58.903Z,101297.53
2022-11-02T06:58:26.496Z,101301.44
2022-11-02T07:00:58.562Z,101290.31
2022-11-02T07:03:26.308Z,101301.00
2022-11-02T07:05:53.879Z,101301.25
2022-11-02T07:08:22.010Z,101302.94
2022-11-02T07:10:50.785Z,101301.25
2022-11-02T07:13:18.299Z,101302.22
2022-11-02T07:15:45.794Z,101298.56
2022-11-02T07:18:13.493Z,101302.09
2022-11-02T07:20:40.988Z,101298.56
2022-11-02T07:23:08.942Z,101293.94
2022-11-02T07:25:36.570Z,101300.88
2022-11-02T07:28:05.529Z,101302.69
2022-11-02T07:30:34.907Z,101306.31
2022-11-02T07:33:02.899Z,101306.44
2022-11-02T07:35:30.737Z,101306.44
2022-11-02T07:37:58.787Z,101306.31
2022-11-02T07:40:26.410Z,101299.28
2022-11-02T07:42:54.590Z,101301.81
2022-11-02T07:45:31.999Z,101302.69
2022-11-02T07:47:59.505Z,101301.56
2022-11-02T07:50:32.322Z,101297.06
2022-11-02T07:53:00.600Z,101314.78
2022-11-02T07:55:29.380Z,101316.31
2022-11-02T07:57:57.709Z,101317.19
2022-11-02T08:00:25.353Z,101313.41
2022-11-02T08:02:56.471Z,101318.88
2022-11-02T08:05:23.966Z,101311.31
2022-11-02T08:07:57.544Z,101312.44
2022-11-02T08:10:25.122Z,101314.13
2022-11-02T08:12:52.616Z,101316.28
2022-11-02T08:15:20.074Z,101317.13
2022-11-02T08:17:47.581Z,101313.47
2022-11-02T08:20:16.698Z,101310.94
2022-11-02T08:22:44.173Z,101314.56
2022-11-02T08:25:11.673Z,101320.19
2022-11-02T08:27:39.158Z,101317.91
2022-11-02T08:30:08.039Z,101325.91
2022-11-02T08:32:35.533Z,101322.28
2022-11-02T08:35:03.007Z,101324.94
2022-11-02T08:37:31.794Z,101331.22
2022-11-02T08:39:59.241Z,101333.91
2022-11-02T08:42:26.701Z,101330.53
2022-11-02T08:44:54.165Z,101321.66
2022-11-02T08:47:21.767Z,101332.59
2022-11-02T08:49:49.295Z,101329.06
2022-11-02T08:52:16.751Z,101326.28
2022-11-02T08:54:45.712Z,101324.19
2022-11-02T08:57:13.252Z,101328.31
2022-11-02T08:59:40.755Z,101326.38
2022-11-02T09:02:09.955Z,101325.91
2022-11-02T09:04:37.584Z,101320.22
2022-11-02T09:07:05.037Z,101315.03
2022-11-02T09:09:32.577Z,101328.81
2022-11-02T09:12:01.439Z,101319.97
2022-11-02T09:14:29.105Z,101323.25
2022-11-02T09:16:56.632Z,101332.53
2022-11-02T09:19:24.070Z,101328.91
2022-11-02T09:21:51.637Z,101326.38
2022-11-02T09:24:19.075Z,101333.41
2022-11-02T09:26:48.479Z,101332.94
2022-11-02T09:29:17.437Z,101328.81
2022-11-02T09:31:44.922Z,101326.16
2022-11-02T09:34:12.374Z,101330.78
2022-11-02T09:36:39.827Z,101334.41
2022-11-02T09:39:07.294Z,101335.59
2022-11-02T09:41:35.842Z,101339.94
2022-11-02T09:44:04.564Z,101342.81
2022-11-02T09:46:34.538Z,101336.66
2022-11-02T09:49:02.812Z,101338.31
2022-11-02T09:51:33.704Z,101344.13
2022-11-02T09:54:04.639Z,101338.84
2022-11-02T09:56:32.422Z,101335.31
2022-11-02T09:59:01.421Z,101341.66
2022-11-02T10:01:38.897Z,101342.13
2022-11-02T10:04:19.352Z,101341.88
2022-11-02T10:06:49.430Z,101347.13
2022-11-02T10:09:18.825Z,101348.25
2022-11-02T10:11:48.895Z,101340.50
2022-11-02T10:14:18.535Z,101336.44
2022-11-02T10:16:51.055Z,101338.97
2022-11-02T10:19:19.746Z,101343.94
2022-11-02T10:21:48.145Z,101344.72
2022-11-02T10:24:30.859Z,101349.97
2022-11-02T10:27:00.575Z,101338.31
2022-11-02T10:29:35.458Z,101340.81
2022-11-02T10:32:04.267Z,101347.41
2022-11-02T10:34:32.243Z,101350.56
2022-11-02T10:37:07.580Z,101349.75
2022-11-02T10:39:38.494Z,101342.81
2022-11-02T10:42:17.574Z,101347.91
2022-11-02T10:45:04.402Z,101357.03
2022-11-02T10:47:34.416Z,101349.88
2022-11-02T10:50:25.023Z,101349.88
2022-11-02T10:52:52.484Z,101352.16
2022-11-02T10:55:24.228Z,101346.69
2022-11-02T10:57:51.679Z,101350.06
2022-11-02T11:00:30.120Z,101354.28
2022-11-02T11:03:06.707Z,101350.66
2022-11-02T11:05:34.596Z,101342.50
2022-11-02T11:08:02.489Z,101347.00
2022-11-02T11:10:31.720Z,101351.22
2022-11-02T11:12:59.230Z,101345.88
2022-11-02T11:21:06.991Z,101363.31
2022-11-02T11:23:34.654Z,101364.19
2022-11-02T11:26:02.926Z,101367.94
2022-11-02T11:28:32.284Z,101366.28
2022-11-02T11:31:07.107Z,101369.19
2022-11-02T11:33:43.202Z,101370.88
2022-11-02T11:36:10.861Z,101365.09
2022-11-02T11:38:38.615Z,101369.00
2022-11-02T11:41:06.450Z,101358.59
2022-11-02T11:43:38.205Z,101372.19
2022-11-02T11:46:07.330Z,101361.50
2022-11-02T11:48:38.112Z,101366.13
2022-11-02T11:51:05.964Z,101368.81
2022-11-02T11:53:35.429Z,101369.69
2022-11-02T11:56:02.917Z,101361.94
2022-11-02T11:58:30.691Z,101364.59
2022-11-02T12:01:10.350Z,101361.78
2022-11-02T12:03:52.395Z,101365.69
2022-11-02T12:06:23.980Z,101355.56
2022-11-02T12:08:53.034Z,101356.91
2022-11-02T12:11:26.871Z,101356.19
2022-11-02T12:14:02.962Z,101356.41
2022-11-02T12:16:34.440Z,101357.41
2022-11-02T12:19:13.816Z,101361.16
2022-11-02T12:21:49.584Z,101356.56
2022-11-02T12:24:31.989Z,101362.28
2022-11-02T12:27:08.721Z,101367.75
2022-11-02T12:29:47.527Z,101365.78
2022-11-02T12:32:21.961Z,101364.38
2022-11-02T12:35:27.400Z,101362.78
2022-11-02T12:37:57.197Z,101359.38
2022-11-02T12:40:27.549Z,101360.81
2022-11-02T12:42:58.014Z,101361.84
2022-11-02T12:45:27.363Z,101348.38
2022-11-02T12:47:57.163Z,101352.75
2022-11-02T12:50:33.879Z,101365.69
2022-11-02T12:53:12.286Z,101367.66
2022-11-02T12:55:42.975Z,101363.28
2022-11-02T12:58:14.660Z,101366.69
2022-11-02T13:00:42.588Z,101363.72
2022-11-02T13:03:17.586Z,101358.81
2022-11-02T13:05:50.313Z,101362.31
2022-11-02T13:08:18.784Z,101356.13
2022-11-02T13:10:50.808Z,101364.84
2022-11-02T13:13:23.713Z,101360.81
2022-11-02T13:15:51.301Z,101363.91
2022-11-02T13:18:20.549Z,101353.97
2022-11-02T13:20:51.026Z,101370.72
2022-11-02T13:23:22.722Z,101353.97
2022-11-02T13:25:51.979Z,101357.38
2022-11-02T13:28:22.762Z,101373.97
2022-11-02T13:30:50.233Z,101364.56
2022-11-02T13:33:19.431Z,101372.31
2022-11-02T13:35:47.276Z,101364.19
2022-11-02T13:38:23.066Z,101372.06
2022-11-02T13:40:51.321Z,101369.53
2022-11-02T13:43:37.461Z,101365.28
2022-11-02T13:46:12.504Z,101372.31
2022-11-02T13:48:41.338Z,101368.41
2022-11-02T13:51:12.428Z,101376.53
2022-11-02T13:53:42.227Z,101366.72
2022-11-02T13:56:10.506Z,101369.53
2022-11-02T13:58:41.617Z,101361.38
2022-11-02T14:01:09.966Z,101359.41
2022-11-02T14:03:47.301Z,101368.53
2022-11-02T14:06:16.243Z,101370.09
2022-11-02T14:08:49.534Z,101364.50
2022-11-02T14:11:35.990Z,101373.47
2022-11-02T14:14:22.283Z,101356.88
2022-11-02T14:17:14.328Z,101364.75
2022-11-02T14:20:00.438Z,101367.88
2022-11-02T14:22:31.058Z,101376.28
2022-11-02T14:25:28.116Z,101378.81
2022-11-02T14:27:55.545Z,101373.47
2022-11-02T14:30:45.805Z,101382.19
2022-11-02T14:33:20.540Z,101384.84
2022-11-02T14:35:50.369Z,101378.56
2022-11-02T14:38:37.069Z,101376.00
2022-11-02T14:41:13.588Z,101383.03
2022-11-02T14:44:02.299Z,101388.38
2022-11-02T14:46:38.057Z,101393.69
2022-11-02T14:49:05.554Z,101402.72
2022-11-02T14:51:33.927Z,101411.31
2022-11-02T14:54:02.752Z,101402.31
2022-11-02T14:56:51.246Z,101416.19
2022-11-02T14:59:20.320Z,101419.75
2022-11-02T15:01:52.342Z,101427.06
2022-11-02T15:04:19.920Z,101429.16
2022-11-02T15:06:52.309Z,101434.50
2022-11-02T15:09:49.629Z,101436.28
2022-11-02T15:12:38.628Z,101437.28
2022-11-02T15:15:39.273Z,101446.25
2022-11-02T15:18:22.878Z,101443.59
2022-11-02T15:21:27.805Z,101445.31
2022-11-02T15:24:20.306Z,101440.66
2022-11-02T15:26:52.219Z,101445.16
2022-11-02T15:29:32.243Z,101452.06
2022-11-02T15:32:00.327Z,101446.72
2022-11-02T15:34:32.863Z,101447.44
2022-11-02T15:37:00.616Z,101447.72
2022-11-02T15:39:28.332Z,101450.50
2022-11-02T15:41:58.383Z,101464.56
2022-11-02T15:44:46.953Z,101467.25
2022-11-02T15:47:17.360Z,101471.75
2022-11-02T15:49:57.655Z,101469.06
2022-11-02T15:52:29.513Z,101472.47
2022-11-02T15:55:01.992Z,101476.09
2022-11-02T15:57:35.993Z,101478.88
2022-11-02T16:00:10.249Z,101482.56
2022-11-02T16:02:38.046Z,101483.13
2022-11-02T16:05:06.904Z,101474.41
2022-11-02T16:07:50.213Z,101476.09
2022-11-02T16:10:25.240Z,101477.91
2022-11-02T16:13:00.183Z,101481.69
2022-11-02T16:15:29.046Z,101482.44
2022-11-02T16:17:56.605Z,101485.94
2022-11-02T16:20:25.563Z,101483.25
2022-11-02T16:22:55.264Z,101485.09
2022-11-02T16:25:26.628Z,101491.53
2022-11-02T16:27:54.072Z,101485.34
2022-11-02T16:30:22.616Z,101489.69
2022-11-02T16:32:53.543Z,101493.09
2022-11-02T16:35:21.471Z,101500.25
2022-11-02T16:37:49.753Z,101499.41
2022-11-02T16:40:17.961Z,101492.38
2022-11-02T16:42:46.799Z,101503.03
2022-11-02T16:45:31.227Z,101503.03
2022-11-02T16:47:59.978Z,101507.53
2022-11-02T16:50:28.168Z,101507.66
2022-11-02T16:52:56.927Z,101509.38
2022-11-02T16:55:40.896Z,101517.38
2022-11-02T16:58:09.578Z,101517.38
2022-11-02T17:00:37.141Z,101515.69
2022-11-02T17:03:10.153Z,101517.66
2022-11-02T17:05:37.622Z,101522.72
2022-11-02T17:08:08.364Z,101525.66
2022-11-02T17:10:36.839Z,101527.19
2022-11-02T17:13:04.547Z,101528.06
2022-11-02T17:15:33.055Z,101526.38
2022-11-02T17:18:26.042Z,101529.03
2022-11-02T17:21:27.751Z,101530.03
2022-11-02T17:23:58.515Z,101537.16
2022-11-02T17:26:27.967Z,101538.16
2022-11-02T17:28:55.648Z,101543.38
2022-11-02T17:31:23.771Z,101544.34
2022-11-02T17:33:52.680Z,101543.50
2022-11-02T17:36:20.160Z,101541.53
2022-11-02T17:38:47.637Z,101542.50
2022-11-02T17:41:34.953Z,101542.63
2022-11-02T17:44:02.468Z,101534.63
2022-11-02T17:46:29.995Z,101543.50
2022-11-02T17:48:58.764Z,101552.34
2022-11-02T17:51:26.246Z,101554.19
2022-11-02T17:53:53.688Z,101561.19
2022-11-02T17:56:21.145Z,101563.03
2022-11-02T17:58:48.600Z,101564.13
2022-11-02T18:01:16.091Z,101563.16
2022-11-02T18:03:43.682Z,101575.66
2022-11-02T18:06:12.438Z,101569.34
2022-11-02T18:08:53.923Z,101569.75
2022-11-02T18:11:25.990Z,101575.09
2022-11-02T18:13:56.499Z,101573.56
2022-11-02T18:16:23.955Z,101573.09
2022-11-02T18:18:51.414Z,101571.38
2022-11-02T18:21:20.181Z,101570.88
2022-11-02T18:23:47.654Z,101570.41
2022-11-02T18:26:15.174Z,101577.69
2022-11-02T18:28:42.606Z,101584.72
2022-11-02T18:31:10.216Z,101579.84
2022-11-02T18:33:37.717Z,101581.69
2022-11-02T18:36:06.073Z,101578.44
2022-11-02T18:38:34.834Z,101579.50
2022-11-02T18:41:25.857Z,101583.28
2022-11-02T18:43:53.365Z,101579.75
2022-11-02T18:46:20.829Z,101580.88
2022-11-02T18:48:48.302Z,101573.00
2022-11-02T18:51:15.758Z,101577.84
2022-11-02T18:53:44.540Z,101568.94
2022-11-02T18:56:12.149Z,101580.06
2022-11-02T18:58:39.589Z,101581.13
2022-11-02T19:01:08.589Z,101580.75
2022-11-02T19:03:36.401Z,101583.16
2022-11-02T19:06:21.827Z,101598.31
2022-11-02T19:09:08.561Z,101589.72
2022-11-02T19:11:36.041Z,101583.44
2022-11-02T19:14:05.035Z,101583.44
2022-11-02T19:16:32.691Z,101577.22
2022-11-02T19:19:00.152Z,101578.09
2022-11-02T19:21:30.340Z,101575.25
2022-11-02T19:23:59.140Z,101580.75
2022-11-02T19:26:27.116Z,101575.53
2022-11-02T19:28:54.596Z,101578.22
2022-11-02T19:31:22.058Z,101578.09
2022-11-02T19:33:49.532Z,101568.38
2022-11-02T19:36:17.092Z,101581.72
2022-11-02T19:38:44.543Z,101592.41
2022-11-02T19:41:14.261Z,101583.44
2022-11-02T19:43:42.663Z,101596.03
2022-11-02T19:46:13.038Z,101594.09
2022-11-02T19:48:40.537Z,101592.41
2022-11-02T19:51:09.077Z,101599.91
2022-11-02T19:53:36.781Z,101593.06
2022-11-02T19:56:04.424Z,101600.56
2022-11-02T19:58:33.186Z,101597.63
2022-11-02T20:01:06.073Z,101595.09
2022-11-02T20:03:33.542Z,101601.75
2022-11-02T20:06:01.053Z,101601.00
2022-11-02T20:08:28.516Z,101602.72
2022-11-02T20:11:02.813Z,101602.47
2022-11-02T20:13:30.257Z,101601.00
2022-11-02T20:15:59.047Z,101604.69
2022-11-02T20:18:26.835Z,101602.84
2022-11-02T20:20:54.462Z,101609.03
2022-11-02T20:23:22.047Z,101611.81
2022-11-02T20:25:49.544Z,101612.22
2022-11-02T20:28:17.018Z,101613.44
2022-11-02T20:30:44.525Z,101612.84
2022-11-02T20:33:13.319Z,101611.31
2022-11-02T20:35:40.825Z,101620.03
2022-11-02T20:38:08.509Z,101620.28
2022-11-02T20:40:41.010Z,101619.44
2022-11-02T20:43:08.936Z,101622.22
2022-11-02T20:45:36.404Z,101617.97
2022-11-02T20:48:04.371Z,101622.47
2022-11-02T20:50:33.764Z,101626.16
2022-11-02T20:53:01.249Z,101627.81
2022-11-02T20:55:28.779Z,101622.47
2022-11-02T20:57:56.597Z,101626.28
2022-11-02T21:00:25.494Z,101625.53
2022-11-02T21:02:52.956Z,101628.34
2022-11-02T21:05:20.557Z,101623.50
2022-11-02T21:07:50.115Z,101622.06
2022-11-02T21:10:18.298Z,101625.69
2022-11-02T21:13:03.493Z,101629.31
2022-11-02T21:15:31.102Z,101636.38
2022-11-02T21:18:00.525Z,101629.31
2022-11-02T21:20:34.036Z,101638.09
2022-11-02T21:23:03.968Z,101636.38
2022-11-02T21:25:31.901Z,101631.03
2022-11-02T21:27:59.456Z,101629.22
2022-11-02T21:30:26.990Z,101630.31
2022-11-02T21:32:54.799Z,101634.66
2022-11-02T21:35:22.348Z,101636.38
2022-11-02T21:37:49.864Z,101644.38
2022-11-02T21:40:18.649Z,101643.41
2022-11-02T21:42:46.153Z,101635.53
2022-11-02T21:45:17.818Z,101633.81
2022-11-02T21:47:45.855Z,101634.81
2022-11-02T21:50:13.551Z,101624.00
2022-11-02T21:52:44.150Z,101619.75
2022-11-02T21:55:12.869Z,101631.75
2022-11-02T21:57:41.661Z,101626.41
2022-11-02T22:00:10.288Z,101622.06
2022-11-02T22:02:39.171Z,101617.69
2022-11-02T22:05:07.201Z,101623.75
2022-11-02T22:07:54.654Z,101624.00
2022-11-02T22:10:22.645Z,101622.91
2022-11-02T22:13:09.129Z,101621.47
2022-11-02T22:15:38.420Z,101618.06
2022-11-02T22:18:06.121Z,101622.09
2022-11-02T22:20:33.575Z,101615.09
2022-11-02T22:23:01.055Z,101614.72
2022-11-02T22:25:28.521Z,101616.81
2022-11-02T22:27:57.316Z,101622.47
2022-11-02T22:30:25.241Z,101625.38
2022-11-02T22:32:52.692Z,101618.72
2022-11-02T22:35:20.284Z,101611.72
2022-11-02T22:38:05.330Z,101612.78
2022-11-02T22:40:32.825Z,101616.41
2022-11-02T22:43:01.641Z,101611.44
2022-11-02T22:45:29.135Z,101613.63
2022-11-02T22:47:56.579Z,101620.06
2022-11-02T22:50:26.866Z,101610.47
2022-11-02T22:52:55.541Z,101604.53
2022-11-02T22:55:23.021Z,101606.50
2022-11-02T22:57:58.831Z,101607.31
2022-11-02T23:00:28.867Z,101609.84
2022-11-02T23:02:56.299Z,101602.69
2022-11-02T23:05:23.811Z,101604.03
2022-11-02T23:07:51.251Z,101595.06
2022-11-02T23:10:33.906Z,101602.81
2022-11-02T23:13:01.375Z,101598.56
2022-11-02T23:15:31.319Z,101603.88
2022-11-02T23:17:58.811Z,101599.78
2022-11-02T23:20:25.367Z,101595.75
2022-11-02T23:23:10.741Z,101592.38
2022-11-02T23:25:38.205Z,101594.94
2022-11-02T23:31:13.016Z,101598.56
2022-11-02T23:33:40.834Z,101595.16
2022-11-02T23:36:11.487Z,101599.66
2022-11-02T23:38:56.581Z,101593.50
2022-11-02T23:41:24.027Z,101584.75
2022-11-02T23:43:51.503Z,101584.75
2022-11-02T23:46:20.361Z,101590.72
2022-11-02T23:48:51.130Z,101594.47
2022-11-02T23:51:38.858Z,101585.75
2022-11-02T23:54:24.315Z,101576.28
2022-11-02T23:56:51.856Z,101568.41
2022-11-02T23:59:19.355Z,101580.19
